Time;durP1;ratioP1;P1;durP2;ratioP2;P2;SDS_P1;SDS_P2;PMS_P1;PMS_P2;Temp;Humidity;BMP_temperature;BMP_pressure;BME280_temperature;BME280_humidity;BME280_pressure;Samples;Min_cycle;Max_cycle;Signal;HPM_P1;HPM_P2
2022/01/05 00:00:32;;;;;;;340.35;69.00;;;;;;;6.76;100.00;99519.66;6250096;22;20042;-88
2022/01/05 00:03:00;;;;;;;584.65;75.97;;;;;;;6.82;100.00;99517.38;6247245;22;20035;-86
2022/01/05 00:05:32;;;;;;;714.28;79.93;;;;;;;6.70;100.00;99504.53;6252150;22;20019;-87
2022/01/05 00:07:57;;;;;;;238.33;51.63;;;;;;;6.75;100.00;99507.50;6252276;23;20015;-88
2022/01/05 00:10:24;;;;;;;666.60;77.88;;;;;;;6.79;100.00;99496.66;6254020;23;20724;-87
2022/01/05 00:12:49;;;;;;;302.45;69.95;;;;;;;6.90;100.00;99509.47;6243419;22;20101;-88
2022/01/05 00:15:15;;;;;;;753.78;73.95;;;;;;;6.67;100.00;99496.94;6254437;22;20024;-87
2022/01/05 00:17:43;;;;;;;527.50;72.00;;;;;;;6.44;100.00;99503.81;6285268;22;20308;-88
2022/01/05 00:20:13;;;;;;;311.75;73.45;;;;;;;6.45;100.00;99504.63;6283718;22;20015;-87
2022/01/05 00:23:16;;;;;;;307.77;71.93;;;;;;;6.46;100.00;99488.69;6266419;22;20012;-85
2022/01/05 00:25:43;;;;;;;611.85;71.80;;;;;;;6.67;100.00;99468.00;6302131;22;19996;-85
2022/01/05 00:28:08;;;;;;;688.42;73.97;;;;;;;6.54;100.00;99451.84;6303880;22;20018;-87
2022/01/05 00:30:37;;;;;;;834.28;79.40;;;;;;;6.22;100.00;99457.88;6300374;22;20011;-88
2022/01/05 00:33:08;;;;;;;610.38;78.78;;;;;;;6.30;100.00;99446.53;6287302;22;20064;-87
2022/01/05 00:35:40;;;;;;;607.72;76.40;;;;;;;6.29;100.00;99446.72;6284548;22;20015;-86
2022/01/05 00:38:05;;;;;;;786.95;87.05;;;;;;;6.15;100.00;99454.25;6281912;22;20022;-86
2022/01/05 00:40:50;;;;;;;628.95;82.70;;;;;;;6.24;100.00;99437.50;6257019;22;20016;-84
2022/01/05 00:43:16;;;;;;;736.72;85.65;;;;;;;6.14;100.00;99454.38;6276652;22;20023;-85
2022/01/05 00:45:41;;;;;;;571.88;83.50;;;;;;;5.91;100.00;99427.03;6282600;22;20008;-87
2022/01/05 00:48:07;;;;;;;383.70;79.43;;;;;;;6.06;100.00;99438.59;6295555;22;20014;-90
2022/01/05 00:50:33;;;;;;;299.05;78.03;;;;;;;6.18;100.00;99445.19;6264942;22;20018;-87
2022/01/05 00:53:00;;;;;;;386.63;74.75;;;;;;;6.26;100.00;99426.81;6284121;22;20011;-87
2022/01/05 00:55:29;;;;;;;349.20;72.97;;;;;;;6.29;100.00;99431.75;6281524;22;20012;-84
2022/01/05 00:57:55;;;;;;;320.60;75.72;;;;;;;6.13;100.00;99434.34;6283781;22;20077;-86
2022/01/05 01:00:21;;;;;;;233.07;64.25;;;;;;;6.17;100.00;99428.59;6282806;22;20011;-86
2022/01/05 01:02:46;;;;;;;224.40;63.75;;;;;;;6.33;100.00;99422.53;6283367;22;20019;-86
2022/01/05 01:05:15;;;;;;;238.88;63.92;;;;;;;6.01;100.00;99422.47;6284426;22;20057;-87
2022/01/05 01:07:41;;;;;;;227.57;64.32;;;;;;;5.90;100.00;99414.88;6251514;22;20060;-87
2022/01/05 01:12:42;;;;;;;201.65;59.38;;;;;;;6.13;100.00;99405.41;6221727;22;20028;-89
2022/01/05 01:15:10;;;;;;;189.10;58.95;;;;;;;6.21;100.00;99400.16;6222401;23;20075;-86
2022/01/05 01:17:35;;;;;;;182.88;57.22;;;;;;;6.33;100.00;99393.59;6218528;23;20020;-87
2022/01/05 01:20:05;;;;;;;177.40;56.55;;;;;;;6.16;100.00;99389.31;6230480;22;20296;-90
2022/01/05 01:22:33;;;;;;;179.82;54.05;;;;;;;6.21;100.00;99387.00;6285329;22;20011;-86
2022/01/05 01:24:58;;;;;;;189.52;57.38;;;;;;;5.94;100.00;99395.16;6257349;22;20443;-88
2022/01/05 01:27:24;;;;;;;196.75;56.80;;;;;;;5.96;100.00;99387.94;6232473;22;20015;-87
2022/01/05 01:29:52;;;;;;;176.35;56.80;;;;;;;6.12;100.00;99396.69;6286327;22;19999;-87
2022/01/05 01:33:03;;;;;;;188.68;55.30;;;;;;;6.20;100.00;99406.38;6269242;22;20020;-85
2022/01/05 01:35:29;;;;;;;248.45;54.53;;;;;;;6.17;100.00;99411.97;6283672;22;20087;-85
2022/01/05 01:38:00;;;;;;;293.08;54.85;;;;;;;6.13;100.00;99373.84;6259062;22;20338;-86
2022/01/05 01:40:27;;;;;;;334.30;54.90;;;;;;;6.04;100.00;99377.44;6284269;22;20008;-86
2022/01/05 01:42:55;;;;;;;203.88;55.22;;;;;;;6.04;100.00;99364.28;6284331;22;20011;-87
2022/01/05 01:45:23;;;;;;;325.90;57.53;;;;;;;5.85;100.00;99354.00;6283965;22;20006;-88
2022/01/05 01:47:50;;;;;;;367.55;60.80;;;;;;;5.80;100.00;99330.03;6259800;22;20069;-87
2022/01/05 01:50:37;;;;;;;364.35;58.60;;;;;;;5.79;100.00;99325.75;6255889;22;20004;-84
2022/01/05 01:53:03;;;;;;;315.30;60.00;;;;;;;5.71;100.00;99316.84;6243429;22;20395;-86
2022/01/05 01:55:29;;;;;;;282.42;60.45;;;;;;;5.71;100.00;99321.28;6281927;22;20014;-86
2022/01/05 01:57:55;;;;;;;286.77;60.53;;;;;;;5.78;100.00;99313.56;6279709;22;20004;-88
2022/01/05 02:00:22;;;;;;;229.90;58.53;;;;;;;5.72;100.00;99313.25;6282272;22;20501;-88
2022/01/05 02:02:52;;;;;;;256.27;63.85;;;;;;;5.53;100.00;99317.97;6284236;22;20008;-87
2022/01/05 02:05:18;;;;;;;236.85;62.17;;;;;;;5.69;100.00;99313.56;6282777;22;20450;-86
2022/01/05 02:07:44;;;;;;;198.82;61.50;;;;;;;5.70;100.00;99299.41;6281959;22;20008;-85
2022/01/05 02:10:10;;;;;;;216.73;63.75;;;;;;;5.57;100.00;99299.06;6262007;22;20419;-87
2022/01/05 02:12:36;;;;;;;214.88;60.30;;;;;;;5.56;100.00;99312.38;6303143;22;20023;-86
2022/01/05 02:15:03;;;;;;;186.80;57.55;;;;;;;5.68;100.00;99298.78;6263582;22;20019;-87
2022/01/05 02:17:44;;;;;;;180.27;58.90;;;;;;;5.58;100.00;99287.56;6285377;22;20027;-87
2022/01/05 02:20:18;;;;;;;162.35;54.28;;;;;;;5.55;100.00;99284.44;6282696;22;20008;-88
2022/01/05 02:22:44;;;;;;;147.73;51.63;;;;;;;5.61;100.00;99274.13;6281487;22;20022;-88
2022/01/05 02:25:09;;;;;;;151.43;52.05;;;;;;;5.63;100.00;99261.63;6257639;22;20035;-86
2022/01/05 02:27:38;;;;;;;151.20;52.15;;;;;;;5.70;100.00;99273.13;6252345;22;20024;-86
2022/01/05 02:30:09;;;;;;;150.60;51.20;;;;;;;5.69;100.00;99262.81;6251383;23;20015;-88
2022/01/05 02:32:35;;;;;;;141.65;51.30;;;;;;;5.57;100.00;99249.13;6253604;23;20111;-87
2022/01/05 02:35:06;;;;;;;149.32;51.47;;;;;;;5.81;100.00;99242.25;6254015;23;20439;-87
2022/01/05 02:37:53;;;;;;;99.57;37.63;;;;;;;5.83;100.00;99235.88;6253622;23;20004;-87
2022/01/05 02:40:22;;;;;;;130.95;47.42;;;;;;;5.83;100.00;99240.31;6254022;23;20038;-87
2022/01/05 02:42:48;;;;;;;134.55;48.55;;;;;;;5.89;100.00;99208.13;6253978;23;20008;-84
2022/01/05 02:45:15;;;;;;;123.70;47.15;;;;;;;5.84;100.00;99199.88;6253572;23;20020;-88
2022/01/05 02:47:42;;;;;;;122.32;45.78;;;;;;;5.66;100.00;99195.63;6254506;23;20012;-87
2022/01/05 02:50:11;;;;;;;120.88;46.75;;;;;;;5.66;100.00;99185.09;6254579;23;20467;-84
2022/01/05 02:52:39;;;;;;;125.80;47.85;;;;;;;5.70;100.00;99175.88;6252627;22;20335;-88
2022/01/05 02:55:07;;;;;;;131.57;49.22;;;;;;;5.60;100.00;99177.84;6252952;23;20019;-88
2022/01/05 02:57:36;;;;;;;125.95;46.45;;;;;;;5.64;100.00;99189.69;6253591;23;20019;-87
2022/01/05 03:00:04;;;;;;;137.52;48.35;;;;;;;5.64;100.00;99189.69;6253679;23;20019;-87
2022/01/05 03:02:30;;;;;;;134.20;46.38;;;;;;;5.64;100.00;99173.91;6234573;22;20100;-87
2022/01/05 03:04:55;;;;;;;134.73;48.58;;;;;;;5.69;100.00;99171.63;6220387;23;20012;-86
2022/01/05 03:07:21;;;;;;;117.18;44.97;;;;;;;5.67;100.00;99176.22;6223711;23;20046;-85
2022/01/05 03:09:49;;;;;;;116.35;44.55;;;;;;;5.55;100.00;99164.38;6224863;23;20024;-87
2022/01/05 03:12:18;;;;;;;125.05;44.70;;;;;;;5.60;100.00;99156.81;6222814;23;20008;-86
2022/01/05 03:14:44;;;;;;;120.70;45.20;;;;;;;5.67;100.00;99160.44;6222182;23;20448;-85
2022/01/05 03:17:09;;;;;;;139.45;49.17;;;;;;;5.54;100.00;99172.41;6222388;23;20036;-86
2022/01/05 03:19:37;;;;;;;129.45;45.65;;;;;;;5.57;100.00;99164.22;6222512;23;20012;-88
2022/01/05 03:25:33;;;;;;;144.18;47.05;;;;;;;5.55;100.00;99182.78;6242313;22;20040;-87
2022/01/05 03:27:59;;;;;;;142.35;45.72;;;;;;;5.46;100.00;99183.78;6240008;23;20005;-86
2022/01/05 03:30:27;;;;;;;154.68;48.53;;;;;;;5.46;100.00;99181.13;6209736;23;20434;-86
2022/01/05 03:35:34;;;;;;;167.35;48.63;;;;;;;5.49;100.00;99175.56;6239937;22;20003;-89
2022/01/05 03:40:54;;;;;;;166.43;48.30;;;;;;;5.58;100.00;99169.31;6187199;23;20024;-87
2022/01/05 03:43:20;;;;;;;154.85;47.85;;;;;;;5.63;100.00;99150.44;6166842;23;20013;-86
2022/01/05 03:45:49;;;;;;;152.50;47.88;;;;;;;5.70;100.00;99157.47;6192826;23;20008;-88
2022/01/05 03:48:17;;;;;;;147.55;46.08;;;;;;;5.58;100.00;99139.59;6191088;23;20013;-86
2022/01/05 03:50:43;;;;;;;146.50;46.25;;;;;;;5.44;100.00;99140.22;6190088;23;20037;-90
2022/01/05 03:53:09;;;;;;;159.48;48.13;;;;;;;5.32;100.00;99137.09;6185637;23;20005;-90
2022/01/05 03:55:37;;;;;;;161.07;48.97;;;;;;;5.39;100.00;99148.63;6185685;23;20009;-87
2022/01/05 03:58:03;;;;;;;162.35;47.92;;;;;;;5.44;100.00;99141.06;6186149;23;20013;-86
2022/01/05 04:00:30;;;;;;;143.88;44.08;;;;;;;5.53;100.00;99161.13;6185485;23;20433;-86
2022/01/05 04:02:57;;;;;;;160.75;47.25;;;;;;;5.27;100.00;99152.53;6183381;23;20017;-88
2022/01/05 04:05:23;;;;;;;149.18;45.28;;;;;;;5.36;100.00;99148.94;6160051;23;20097;-86
2022/01/05 04:07:49;;;;;;;147.13;43.55;;;;;;;5.32;100.00;99157.28;6185872;23;20341;-88
2022/01/05 04:10:16;;;;;;;149.93;44.65;;;;;;;5.49;100.00;99138.78;6185930;23;20013;-86
2022/01/05 04:12:41;;;;;;;136.80;44.28;;;;;;;5.51;100.00;99139.41;6184028;23;20392;-87
2022/01/05 04:15:07;;;;;;;144.88;44.35;;;;;;;5.44;100.00;99135.78;6185017;23;20151;-86
2022/01/05 04:17:33;;;;;;;148.75;45.38;;;;;;;5.38;100.00;99128.56;6159414;23;20009;-88
2022/01/05 04:19:58;;;;;;;140.73;42.95;;;;;;;5.55;100.00;99132.03;6185716;23;20009;-86
2022/01/05 04:22:24;;;;;;;140.60;42.97;;;;;;;5.38;100.00;99114.59;6185099;23;20020;-85
2022/01/05 04:24:49;;;;;;;123.15;41.55;;;;;;;5.67;100.00;99110.50;6185141;23;20341;-86
2022/01/05 04:27:15;;;;;;;133.48;40.88;;;;;;;5.49;100.00;99109.03;6185235;23;20296;-88
2022/01/05 04:29:42;;;;;;;133.82;41.63;;;;;;;5.49;100.00;99115.13;6185392;23;20009;-89
2022/01/05 04:32:08;;;;;;;131.10;42.03;;;;;;;5.50;100.00;99115.94;6185128;23;20024;-87
2022/01/05 04:34:34;;;;;;;134.10;43.17;;;;;;;5.43;100.00;99096.56;6187621;23;20041;-89
2022/01/05 04:36:59;;;;;;;127.68;42.80;;;;;;;5.62;100.00;99102.31;6187501;23;20013;-89
2022/01/05 04:39:25;;;;;;;135.18;41.95;;;;;;;5.85;100.00;99101.63;6186878;23;20056;-87
2022/01/05 04:41:50;;;;;;;172.52;40.75;;;;;;;5.72;100.00;99096.88;6187169;23;20013;-87
2022/01/05 04:44:16;;;;;;;131.52;40.80;;;;;;;5.84;100.00;99086.81;6185118;23;20020;-87
2022/01/05 04:46:41;;;;;;;126.93;39.85;;;;;;;5.74;100.00;99090.47;6186106;23;20021;-87
2022/01/05 04:49:07;;;;;;;151.25;43.22;;;;;;;5.48;100.00;99084.56;6187276;23;20009;-88
2022/01/05 04:51:32;;;;;;;187.00;42.88;;;;;;;5.70;100.00;99073.38;6187664;23;20059;-89
2022/01/05 04:53:58;;;;;;;166.98;46.33;;;;;;;5.52;100.00;99083.25;6187865;23;20013;-87
2022/01/05 04:56:23;;;;;;;236.60;45.20;;;;;;;5.43;100.00;99063.25;6190852;23;20072;-86
2022/01/05 04:58:50;;;;;;;149.65;44.67;;;;;;;5.53;100.00;99070.94;6184338;23;20480;-88
2022/01/05 05:01:15;;;;;;;185.13;44.17;;;;;;;5.41;100.00;99052.06;6194614;23;20021;-87
2022/01/05 05:03:41;;;;;;;186.85;42.58;;;;;;;5.43;100.00;99052.72;6187790;23;20100;-86
2022/01/05 05:06:07;;;;;;;126.85;41.30;;;;;;;5.51;100.00;99055.34;6187464;23;20016;-87
2022/01/05 05:08:33;;;;;;;113.55;37.92;;;;;;;5.46;100.00;99065.53;6186990;23;20005;-87
2022/01/05 05:10:58;;;;;;;112.03;38.55;;;;;;;5.60;100.00;99050.91;6187205;23;20452;-87
2022/01/05 05:13:24;;;;;;;107.25;37.05;;;;;;;5.52;100.00;99049.09;6186974;23;20068;-86
2022/01/05 05:15:49;;;;;;;98.93;35.80;;;;;;;5.52;100.00;99064.88;6188410;23;20079;-87
2022/01/05 05:18:15;;;;;;;91.97;33.63;;;;;;;5.51;100.00;99049.25;6188238;23;20009;-87
2022/01/05 05:20:40;;;;;;;87.45;32.60;;;;;;;5.69;100.00;99058.63;6187171;23;20001;-86
2022/01/05 05:23:07;;;;;;;86.20;33.40;;;;;;;5.53;100.00;99045.50;6185896;23;20444;-87
2022/01/05 05:25:33;;;;;;;81.13;32.28;;;;;;;5.31;100.00;99051.41;6191375;23;20032;-85
2022/01/05 05:27:59;;;;;;;79.97;32.40;;;;;;;5.20;100.00;99044.66;6186989;23;20013;-86
2022/01/05 05:30:24;;;;;;;81.00;31.00;;;;;;;5.24;100.00;99044.38;6187046;23;20009;-85
2022/01/05 05:32:50;;;;;;;83.93;32.05;;;;;;;5.21;100.00;99033.19;6186734;23;20001;-88
2022/01/05 05:35:16;;;;;;;91.45;33.80;;;;;;;5.09;100.00;99036.31;6187911;23;20078;-88
2022/01/05 05:37:42;;;;;;;99.10;35.22;;;;;;;5.28;100.00;99030.72;6192641;23;20032;-86
2022/01/05 05:40:08;;;;;;;118.05;37.50;;;;;;;5.11;100.00;99035.16;6199945;23;20392;-86
2022/01/05 05:42:34;;;;;;;114.93;37.80;;;;;;;5.17;100.00;99017.94;6195528;23;20036;-84
2022/01/05 05:44:59;;;;;;;145.50;43.42;;;;;;;5.07;100.00;99019.91;6196232;23;20028;-85
2022/01/05 05:47:24;;;;;;;227.18;45.30;;;;;;;5.03;100.00;99021.22;6189854;23;20095;-86
2022/01/05 05:49:50;;;;;;;150.88;43.45;;;;;;;5.02;100.00;99015.13;6187281;23;20005;-87
2022/01/05 05:52:16;;;;;;;135.05;40.58;;;;;;;4.89;100.00;98995.59;6160675;23;20024;-87
2022/01/05 05:54:42;;;;;;;130.05;40.78;;;;;;;4.81;100.00;98998.19;6186560;23;20039;-88
2022/01/05 05:57:07;;;;;;;126.47;41.60;;;;;;;4.84;100.00;98993.44;6160312;23;20055;-85
2022/01/05 05:59:36;;;;;;;119.78;40.15;;;;;;;4.89;100.00;98983.31;6186235;23;20084;-85
2022/01/05 06:02:01;;;;;;;106.30;38.00;;;;;;;4.86;100.00;98985.44;6186802;23;20005;-86
2022/01/05 06:04:29;;;;;;;103.95;38.10;;;;;;;4.84;100.00;99000.53;6186477;23;20092;-87
2022/01/05 06:06:55;;;;;;;100.85;36.03;;;;;;;4.95;100.00;99015.94;6187000;23;20021;-84
2022/01/05 06:09:20;;;;;;;90.78;34.03;;;;;;;5.05;100.00;99019.22;6185373;23;20018;-86
2022/01/05 06:11:46;;;;;;;100.72;35.35;;;;;;;5.04;100.00;99018.41;6187726;23;20009;-85
2022/01/05 06:14:14;;;;;;;98.10;38.03;;;;;;;5.03;100.00;99005.47;6186882;23;20372;-85
2022/01/05 06:16:40;;;;;;;95.72;36.38;;;;;;;5.11;100.00;99029.06;6190155;23;20005;-84
2022/01/05 06:19:05;;;;;;;93.63;36.17;;;;;;;5.18;100.00;99040.56;6208383;23;20001;-87
2022/01/05 06:21:31;;;;;;;84.13;34.70;;;;;;;5.24;100.00;99045.16;6212553;23;20013;-89
2022/01/05 06:23:56;;;;;;;91.93;35.33;;;;;;;5.18;100.00;99057.16;6213319;23;20079;-87
2022/01/05 06:26:22;;;;;;;88.85;35.63;;;;;;;5.33;100.00;99054.72;6193978;23;20348;-89
2022/01/05 06:28:48;;;;;;;88.40;34.10;;;;;;;5.28;100.00;99064.03;6161594;23;20016;-87
2022/01/05 06:31:14;;;;;;;94.13;35.03;;;;;;;5.29;100.00;99048.13;6187937;23;20013;-89
2022/01/05 06:33:39;;;;;;;83.28;33.03;;;;;;;5.34;100.00;99051.06;6186262;23;20017;-86
2022/01/05 06:36:05;;;;;;;84.03;33.13;;;;;;;5.33;100.00;99064.38;6186764;23;20147;-87
2022/01/05 06:38:30;;;;;;;83.78;33.42;;;;;;;5.37;100.00;99065.72;6187142;23;20053;-89
2022/01/05 06:40:56;;;;;;;83.82;32.55;;;;;;;5.39;100.00;99047.97;6187191;23;20020;-88
2022/01/05 06:43:21;;;;;;;87.32;34.45;;;;;;;5.48;100.00;99042.53;6188217;23;20017;-87
2022/01/05 06:45:47;;;;;;;79.90;32.22;;;;;;;5.54;100.00;99059.44;6187044;23;20013;-87
2022/01/05 06:48:13;;;;;;;85.70;33.63;;;;;;;5.40;100.00;99053.03;6187148;23;20001;-87
2022/01/05 06:50:38;;;;;;;91.53;35.70;;;;;;;5.45;100.00;99044.66;6187940;23;20428;-86
2022/01/05 06:53:04;;;;;;;80.13;33.03;;;;;;;5.50;100.00;99056.31;6186872;23;20001;-85
2022/01/05 06:55:29;;;;;;;99.78;34.90;;;;;;;5.62;100.00;99046.28;6160410;23;20095;-88
2022/01/05 06:57:55;;;;;;;96.07;34.92;;;;;;;5.48;100.00;99047.78;6161866;23;20095;-85
2022/01/05 07:00:22;;;;;;;94.65;33.50;;;;;;;5.51;100.00;99047.44;6160056;23;20001;-87
2022/01/05 07:02:50;;;;;;;97.32;34.90;;;;;;;5.45;100.00;99053.38;6186849;23;20013;-90
2022/01/05 07:05:16;;;;;;;94.30;35.47;;;;;;;5.46;100.00;99062.91;6186832;23;20009;-90
2022/01/05 07:07:42;;;;;;;102.57;36.35;;;;;;;5.49;100.00;99062.56;6186120;23;20020;-88
2022/01/05 07:10:10;;;;;;;103.47;36.45;;;;;;;5.55;100.00;99069.78;6184699;23;20013;-87
2022/01/05 07:12:37;;;;;;;94.63;33.80;;;;;;;5.85;100.00;99070.06;6187581;23;20024;-90
2022/01/05 07:15:04;;;;;;;110.80;38.42;;;;;;;5.72;100.00;99060.91;6184913;23;20349;-87
2022/01/05 07:17:30;;;;;;;110.75;38.25;;;;;;;5.65;100.00;99070.44;6184400;23;20008;-89
2022/01/05 07:19:55;;;;;;;101.97;37.28;;;;;;;5.73;100.00;99073.03;6185531;23;20044;-89
2022/01/05 07:22:21;;;;;;;115.97;39.65;;;;;;;5.85;100.00;99073.53;6187504;23;20009;-88
2022/01/05 07:24:47;;;;;;;105.82;38.15;;;;;;;5.88;100.00;99075.03;6185761;23;20044;-88
2022/01/05 07:27:12;;;;;;;119.65;38.10;;;;;;;5.85;100.00;99056.94;6185885;23;20055;-87
2022/01/05 07:29:38;;;;;;;113.90;37.63;;;;;;;5.90;100.00;99071.22;6159468;23;20452;-91
2022/01/05 07:32:04;;;;;;;148.57;39.97;;;;;;;5.80;100.00;99067.94;6187937;23;20023;-89
2022/01/05 07:34:30;;;;;;;155.82;39.75;;;;;;;5.76;100.00;99066.66;6186479;23;20012;-86
2022/01/05 07:36:55;;;;;;;130.77;39.13;;;;;;;5.83;100.00;99061.53;6186361;23;20017;-90
2022/01/05 07:39:21;;;;;;;128.57;40.95;;;;;;;5.90;100.00;99057.28;6135719;23;20576;-89
2022/01/05 07:41:49;;;;;;;167.13;42.42;;;;;;;5.88;100.00;99048.72;6186675;23;20017;-91
2022/01/05 07:44:14;;;;;;;175.68;41.78;;;;;;;5.77;100.00;99046.44;6196396;23;20020;-83
2022/01/05 07:46:40;;;;;;;131.75;40.55;;;;;;;5.98;100.00;99049.38;6184110;23;20017;-87
2022/01/05 07:49:06;;;;;;;195.25;42.55;;;;;;;5.86;100.00;99051.56;6187704;23;20445;-90
2022/01/05 07:51:33;;;;;;;239.05;41.97;;;;;;;5.80;100.00;99046.09;6185846;23;20005;-88
2022/01/05 07:53:58;;;;;;;282.95;43.28;;;;;;;5.78;100.00;99048.88;6186142;23;20044;-88
2022/01/05 07:56:26;;;;;;;164.93;40.85;;;;;;;5.85;100.00;99059.56;6185525;23;20001;-86
2022/01/05 07:58:52;;;;;;;309.25;46.88;;;;;;;5.78;100.00;99048.06;6185828;23;20023;-92
2022/01/05 08:01:18;;;;;;;182.25;44.35;;;;;;;5.68;100.00;99033.31;6185705;23;20009;-86
2022/01/05 08:03:48;;;;;;;199.63;44.05;;;;;;;5.65;100.00;99023.13;6185090;23;20041;-85
2022/01/05 08:06:14;;;;;;;150.65;41.00;;;;;;;5.73;100.00;99024.94;6186072;23;20439;-86
2022/01/05 08:08:40;;;;;;;144.45;39.83;;;;;;;5.72;100.00;99026.75;6185420;23;20436;-85
2022/01/05 08:11:06;;;;;;;182.10;38.88;;;;;;;5.78;100.00;99022.59;6185803;23;20013;-87
2022/01/05 08:13:32;;;;;;;160.38;37.90;;;;;;;5.84;100.00;99040.31;6160683;23;20009;-84
2022/01/05 08:15:57;;;;;;;100.65;34.45;;;;;;;5.95;100.00;99049.72;6186689;23;20036;-86
2022/01/05 08:18:23;;;;;;;125.38;34.75;;;;;;;5.85;100.00;99041.16;6185031;23;20009;-85
2022/01/05 08:20:48;;;;;;;101.32;34.83;;;;;;;5.85;100.00;99031.47;6184445;23;20083;-87
2022/01/05 08:23:20;;;;;;;93.78;32.72;;;;;;;5.92;100.00;99037.72;6186021;23;20016;-85
2022/01/05 08:25:46;;;;;;;107.68;35.33;;;;;;;5.78;100.00;99032.28;6187036;23;20013;-88
2022/01/05 08:28:12;;;;;;;88.70;31.75;;;;;;;5.82;100.00;99044.13;6186472;23;20013;-88
2022/01/05 08:30:39;;;;;;;104.78;33.30;;;;;;;5.90;100.00;99046.78;6187247;23;20035;-88
2022/01/05 08:33:06;;;;;;;86.35;33.08;;;;;;;5.83;100.00;99043.16;6187241;23;20059;-85
2022/01/05 08:35:33;;;;;;;114.72;34.08;;;;;;;5.73;100.00;99040.69;6186461;23;20009;-87
2022/01/05 08:38:00;;;;;;;95.85;33.58;;;;;;;5.78;100.00;99042.81;6186568;23;20096;-85
2022/01/05 08:40:26;;;;;;;92.95;33.95;;;;;;;5.93;100.00;99044.59;6191411;23;20009;-89
2022/01/05 08:42:53;;;;;;;90.32;32.97;;;;;;;5.97;100.00;99047.72;6160445;23;20020;-87
2022/01/05 08:45:19;;;;;;;99.57;32.10;;;;;;;5.97;100.00;99042.47;6186266;23;20068;-86
2022/01/05 08:47:49;;;;;;;91.28;31.52;;;;;;;5.95;100.00;99044.44;6186447;23;20083;-83
2022/01/05 08:50:17;;;;;;;90.85;31.02;;;;;;;5.96;100.00;99038.22;6186178;23;20016;-88
2022/01/05 08:52:43;;;;;;;90.63;29.83;;;;;;;5.85;100.00;99034.09;6193631;23;20710;-88
2022/01/05 08:55:09;;;;;;;83.32;30.42;;;;;;;5.84;100.00;99027.19;6188641;23;20033;-87
2022/01/05 08:57:35;;;;;;;85.90;30.20;;;;;;;5.93;100.00;99020.16;6189137;23;20039;-89
2022/01/05 09:00:04;;;;;;;90.00;32.08;;;;;;;6.01;100.00;99030.63;6186001;23;20036;-88
2022/01/05 09:02:30;;;;;;;92.55;31.58;;;;;;;6.03;100.00;99036.56;6187330;23;20718;-89
2022/01/05 09:04:55;;;;;;;85.50;30.50;;;;;;;6.09;100.00;99033.25;6157367;23;20028;-87
2022/01/05 09:07:21;;;;;;;82.00;30.20;;;;;;;6.04;100.00;99027.66;6188363;23;20083;-88
2022/01/05 09:09:46;;;;;;;80.18;29.10;;;;;;;6.03;100.00;99047.06;6208202;23;20021;-86
2022/01/05 09:12:12;;;;;;;85.82;30.13;;;;;;;6.13;100.00;99047.69;6212788;23;20003;-85
2022/01/05 09:14:39;;;;;;;84.65;29.13;;;;;;;6.09;100.00;99039.31;6187916;23;20044;-89
2022/01/05 09:17:06;;;;;;;75.45;29.33;;;;;;;6.10;100.00;99046.19;6199120;23;20064;-88
2022/01/05 09:19:32;;;;;;;76.15;29.55;;;;;;;6.11;100.00;99049.66;6158751;23;20080;-86
2022/01/05 09:21:57;;;;;;;83.65;30.20;;;;;;;6.10;100.00;99050.63;6187285;23;20440;-84
2022/01/05 09:24:25;;;;;;;75.30;28.70;;;;;;;6.10;100.00;99053.25;6185882;23;20016;-86
2022/01/05 09:26:52;;;;;;;74.40;30.52;;;;;;;6.12;100.00;99043.41;6184071;23;20013;-84
2022/01/05 09:29:18;;;;;;;67.75;29.25;;;;;;;6.38;100.00;99065.00;6187834;23;20345;-84
2022/01/05 09:31:44;;;;;;;69.82;27.85;;;;;;;6.20;100.00;99059.97;6186353;23;20016;-83
2022/01/05 09:34:09;;;;;;;67.25;28.40;;;;;;;6.15;100.00;99050.97;6185015;23;20017;-85
2022/01/05 09:36:48;;;;;;;68.35;27.88;;;;;;;6.26;100.00;99063.75;6159745;23;20013;-82
2022/01/05 09:42:00;;;;;;;80.07;28.92;;;;;;;6.28;100.00;99056.50;6186268;23;20072;-85
2022/01/05 09:44:35;;;;;;;68.15;28.90;;;;;;;6.40;100.00;99044.59;6185599;23;20096;-84
2022/01/05 09:47:20;;;;;;;90.82;32.88;;;;;;;6.39;100.00;99061.41;6183791;23;20021;-83
2022/01/05 09:50:07;;;;;;;93.18;33.65;;;;;;;6.38;100.00;99057.13;6184390;23;20071;-84
2022/01/05 09:52:34;;;;;;;167.55;38.42;;;;;;;6.36;100.00;99067.00;6185400;23;20009;-83
2022/01/05 09:55:01;;;;;;;146.95;40.53;;;;;;;6.35;100.00;99068.00;6185548;23;20009;-85
2022/01/05 09:57:28;;;;;;;172.50;42.13;;;;;;;6.32;100.00;99075.41;6158549;23;20283;-84
2022/01/05 09:59:56;;;;;;;91.22;32.88;;;;;;;6.25;100.00;99075.25;6183633;23;20012;-83
2022/01/05 10:02:22;;;;;;;94.38;32.80;;;;;;;6.31;100.00;99069.31;6184602;23;20013;-83
2022/01/05 10:04:47;;;;;;;85.10;33.08;;;;;;;6.20;100.00;99059.16;6185110;23;20092;-83
2022/01/05 10:07:13;;;;;;;83.40;34.22;;;;;;;6.18;100.00;99061.16;6186039;23;20005;-81
2022/01/05 10:09:41;;;;;;;96.60;34.55;;;;;;;6.13;100.00;99068.72;6186640;23;20504;-84
2022/01/05 10:12:08;;;;;;;81.05;32.85;;;;;;;6.18;100.00;99072.50;6159252;23;20013;-88
2022/01/05 10:14:34;;;;;;;74.90;30.27;;;;;;;6.17;100.00;99062.94;6186262;23;20001;-82
2022/01/05 10:17:07;;;;;;;68.00;30.67;;;;;;;6.28;100.00;99056.50;6183981;23;20009;-85
2022/01/05 10:19:35;;;;;;;73.10;29.65;;;;;;;6.30;100.00;99059.78;6186499;23;20036;-81
2022/01/05 10:22:01;;;;;;;68.13;30.13;;;;;;;6.16;100.00;99042.88;6197935;23;20025;-86
2022/01/05 10:24:46;;;;;;;60.90;28.80;;;;;;;6.13;100.00;99037.97;6190761;23;20437;-84
2022/01/05 10:27:16;;;;;;;69.43;32.40;;;;;;;6.25;100.00;99051.59;6184969;23;20047;-89
2022/01/05 10:29:53;;;;;;;74.68;30.23;;;;;;;6.22;100.00;99059.81;6190344;23;20027;-86
2022/01/05 10:32:20;;;;;;;62.05;29.40;;;;;;;6.35;100.00;99052.19;6198852;23;20009;-83
2022/01/05 10:35:03;;;;;;;66.55;30.83;;;;;;;6.21;100.00;99042.38;6185226;23;20001;-82
2022/01/05 10:37:28;;;;;;;68.05;31.45;;;;;;;6.27;100.00;99040.88;6184582;23;20435;-85
2022/01/05 10:40:09;;;;;;;61.03;31.75;;;;;;;6.25;100.00;99041.06;6184149;23;20036;-89
2022/01/05 10:42:36;;;;;;;59.53;32.03;;;;;;;6.21;100.00;99031.88;6189791;23;20020;-89
2022/01/05 10:45:05;;;;;;;62.38;32.47;;;;;;;6.23;100.00;99024.63;6190351;23;20361;-89
2022/01/05 10:47:32;;;;;;;69.18;33.97;;;;;;;6.20;100.00;99041.56;6185963;23;20013;-86
2022/01/05 10:49:58;;;;;;;67.63;34.83;;;;;;;6.15;100.00;99048.34;6133866;23;20009;-89
2022/01/05 10:52:28;;;;;;;67.53;36.22;;;;;;;6.12;100.00;99043.41;6159292;23;20047;-89
2022/01/05 10:55:14;;;;;;;74.07;34.78;;;;;;;6.08;100.00;99023.69;6185788;23;20060;-89
2022/01/05 10:58:02;;;;;;;65.10;34.42;;;;;;;6.12;100.00;99041.59;6185645;23;20009;-87
2022/01/05 11:00:36;;;;;;;63.13;33.78;;;;;;;6.11;100.00;99037.31;6186754;23;20020;-85
2022/01/05 11:03:18;;;;;;;60.00;32.65;;;;;;;6.07;100.00;99022.03;6182603;23;20084;-88
2022/01/05 11:06:18;;;;;;;64.30;31.25;;;;;;;6.12;100.00;99012.69;6184662;23;20047;-88
2022/01/05 11:08:57;;;;;;;55.55;29.55;;;;;;;6.15;100.00;99024.66;6182289;23;20045;-86
2022/01/05 11:11:39;;;;;;;58.33;30.48;;;;;;;6.22;100.00;99025.63;6154395;23;20013;-88
2022/01/05 11:14:07;;;;;;;;;;;;;;;6.20;100.00;99032.84;6186443;23;20013;-89
2022/01/05 11:16:33;;;;;;;52.70;29.77;;;;;;;6.12;100.00;99025.81;6184534;23;19927;-90
2022/01/05 11:19:19;;;;;;;50.65;30.23;;;;;;;6.10;100.00;99013.81;6187538;23;20037;-92
2022/01/05 11:22:02;;;;;;;67.40;35.38;;;;;;;6.23;100.00;99008.84;6188541;23;20020;-89
2022/01/05 11:24:29;;;;;;;;;;;;;;;6.26;100.00;99012.94;6159397;23;20009;-89
2022/01/05 11:27:01;;;;;;;48.83;29.75;;;;;;;6.24;100.00;99018.38;6171891;23;19916;-90
2022/01/05 11:29:27;;;;;;;44.78;27.13;;;;;;;6.21;100.00;99008.19;6190509;23;20013;-90